createdAt,value
2022-11-29T00:01:42.157Z,12.77
2022-11-29T00:04:12.415Z,11.00
2022-11-29T00:06:42.033Z,10.80
2022-11-29T00:09:13.653Z,10.93
2022-11-29T00:12:01.820Z,11.03
2022-11-29T00:14:30.706Z,12.30
2022-11-29T00:17:02.251Z,11.70
2022-11-29T00:19:31.256Z,12.07
2022-11-29T00:22:01.416Z,14.53
2022-11-29T00:24:31.641Z,12.13
2022-11-29T00:27:00.651Z,11.70
2022-11-29T00:29:30.169Z,11.90
2022-11-29T00:31:58.395Z,11.23
2022-11-29T00:34:26.597Z,10.50
2022-11-29T00:36:54.760Z,12.60
2022-11-29T00:39:24.588Z,11.30
2022-11-29T00:41:52.803Z,10.90
2022-11-29T00:44:21.367Z,13.20
2022-11-29T00:46:50.299Z,12.63
2022-11-29T00:49:18.827Z,11.80
2022-11-29T00:51:47.625Z,12.53
2022-11-29T00:54:16.295Z,12.87
2022-11-29T00:56:45.837Z,11.73
2022-11-29T00:59:14.097Z,11.57
2022-11-29T01:01:42.379Z,12.67
2022-11-29T01:04:10.546Z,13.13
2022-11-29T01:06:38.859Z,13.53
2022-11-29T01:09:07.099Z,12.80
2022-11-29T01:11:35.880Z,13.83
2022-11-29T01:14:06.145Z,14.63
2022-11-29T01:16:34.764Z,14.63
2022-11-29T01:19:03.968Z,14.23
2022-11-29T01:21:32.293Z,13.80
2022-11-29T01:24:01.636Z,13.67
2022-11-29T01:26:31.237Z,14.47
2022-11-29T01:29:00.172Z,14.47
2022-11-29T01:31:32.650Z,13.47
2022-11-29T01:34:03.318Z,12.80
2022-11-29T01:36:32.277Z,12.70
2022-11-29T01:39:00.976Z,12.87
2022-11-29T01:41:31.245Z,13.73
2022-11-29T01:44:02.805Z,12.57
2022-11-29T01:46:34.948Z,13.20
2022-11-29T01:49:09.879Z,12.77
2022-11-29T01:51:41.147Z,13.20
2022-11-29T01:54:11.181Z,14.37
2022-11-29T01:56:39.985Z,13.03
2022-11-29T01:59:11.807Z,12.60
2022-11-29T02:01:41.540Z,12.83
2022-11-29T02:04:10.294Z,13.13
2022-11-29T02:06:39.873Z,12.77
2022-11-29T02:09:19.589Z,13.27
2022-11-29T02:12:03.846Z,13.33
2022-11-29T02:14:50.280Z,14.10
2022-11-29T02:17:30.475Z,14.60
2022-11-29T02:20:29.565Z,15.90
2022-11-29T02:23:05.577Z,17.53
2022-11-29T02:25:49.820Z,17.50
2022-11-29T02:28:42.924Z,15.90
2022-11-29T02:31:40.058Z,17.90
2022-11-29T02:34:24.981Z,15.70
2022-11-29T02:37:12.490Z,16.03
2022-11-29T02:40:23.876Z,16.40
2022-11-29T02:43:15.918Z,15.67
2022-11-29T02:46:08.620Z,17.30
2022-11-29T02:48:56.633Z,17.60
2022-11-29T02:51:32.274Z,18.80
2022-11-29T02:54:07.484Z,18.80
2022-11-29T02:56:44.145Z,17.30
2022-11-29T02:59:19.419Z,18.43
2022-11-29T03:01:55.042Z,15.90
2022-11-29T03:04:32.341Z,16.73
2022-11-29T03:07:08.584Z,20.27
2022-11-29T03:09:42.835Z,19.87
2022-11-29T03:12:19.696Z,20.33
2022-11-29T03:14:58.501Z,21.40
2022-11-29T03:17:39.602Z,22.13
2022-11-29T03:20:22.019Z,22.57
2022-11-29T03:23:08.327Z,21.70
2022-11-29T03:25:41.387Z,23.07
2022-11-29T03:28:16.115Z,22.30
2022-11-29T03:30:54.648Z,22.80
2022-11-29T03:33:29.202Z,22.47
2022-11-29T03:36:05.561Z,22.90
2022-11-29T03:38:41.344Z,22.87
2022-11-29T03:41:21.511Z,21.50
2022-11-29T03:43:56.168Z,27.33
2022-11-29T03:46:32.200Z,24.03
2022-11-29T03:49:05.156Z,26.27
2022-11-29T03:51:47.784Z,26.70
2022-11-29T03:54:23.263Z,27.30
2022-11-29T03:56:51.852Z,27.50
2022-11-29T03:59:39.045Z,27.10
2022-11-29T04:02:43.620Z,28.03
2022-11-29T04:05:55.564Z,29.53
2022-11-29T04:08:56.277Z,31.07
2022-11-29T04:12:09.566Z,32.87
2022-11-29T04:15:23.726Z,30.37
2022-11-29T04:18:36.381Z,33.50
2022-11-29T04:21:27.331Z,29.77
2022-11-29T04:24:31.079Z,27.60
2022-11-29T04:27:25.458Z,30.33
2022-11-29T04:30:07.754Z,29.70
2022-11-29T04:33:05.632Z,29.57
2022-11-29T04:35:52.658Z,29.93
2022-11-29T04:38:57.497Z,30.60
2022-11-29T04:41:39.919Z,30.00
2022-11-29T04:44:38.420Z,27.20
2022-11-29T04:47:29.721Z,27.70
2022-11-29T04:50:13.945Z,27.20
2022-11-29T04:53:07.744Z,26.37
2022-11-29T04:55:44.859Z,27.97
2022-11-29T04:58:22.683Z,27.50
2022-11-29T05:00:58.387Z,24.70
2022-11-29T05:03:39.871Z,30.77
2022-11-29T05:06:20.188Z,49.83
2022-11-29T05:09:02.323Z,35.40
2022-11-29T05:11:57.292Z,39.00
2022-11-29T05:14:36.374Z,35.40
2022-11-29T05:17:22.419Z,28.80
2022-11-29T05:20:22.772Z,27.23
2022-11-29T05:23:05.966Z,25.83
2022-11-29T05:25:43.583Z,26.70
2022-11-29T05:28:21.267Z,25.87
2022-11-29T05:31:20.557Z,25.83
2022-11-29T05:34:19.712Z,24.40
2022-11-29T05:36:58.524Z,26.03
2022-11-29T05:39:47.615Z,24.80
2022-11-29T05:42:40.126Z,23.20
2022-11-29T05:45:15.799Z,24.03
2022-11-29T05:47:51.341Z,24.43
2022-11-29T05:50:25.350Z,23.70
2022-11-29T05:52:58.240Z,23.40
2022-11-29T05:55:35.859Z,20.83
2022-11-29T05:58:12.045Z,22.70
2022-11-29T06:00:48.936Z,22.50
2022-11-29T06:03:22.932Z,21.63
2022-11-29T06:05:56.728Z,22.60
2022-11-29T06:08:37.790Z,23.07
2022-11-29T06:11:14.940Z,22.07
2022-11-29T06:13:54.614Z,20.83
2022-11-29T06:16:41.269Z,22.77
2022-11-29T06:19:33.603Z,21.73
2022-11-29T06:22:14.956Z,30.10
2022-11-29T06:24:56.626Z,41.30
2022-11-29T06:27:39.781Z,34.23
2022-11-29T06:30:10.824Z,27.47
2022-11-29T06:32:48.786Z,25.13
2022-11-29T06:35:35.439Z,21.77
2022-11-29T06:38:10.684Z,22.13
2022-11-29T06:40:40.810Z,21.00
2022-11-29T06:43:09.585Z,22.53
2022-11-29T06:45:38.365Z,22.07
2022-11-29T06:48:10.923Z,21.40
2022-11-29T06:50:55.078Z,20.80
2022-11-29T06:53:29.320Z,22.47
2022-11-29T06:56:06.491Z,19.47
2022-11-29T06:58:44.249Z,21.87
2022-11-29T07:01:21.480Z,19.60
2022-11-29T07:04:26.565Z,20.50
2022-11-29T07:06:55.336Z,18.77
2022-11-29T07:09:29.612Z,19.50
2022-11-29T07:11:59.871Z,23.17
2022-11-29T07:14:28.753Z,19.10
2022-11-29T07:17:04.766Z,20.03
2022-11-29T07:19:41.746Z,20.87
2022-11-29T07:22:33.307Z,22.03
2022-11-29T07:25:09.247Z,24.10
2022-11-29T07:27:45.939Z,20.57
2022-11-29T07:30:19.995Z,21.27
2022-11-29T07:33:00.629Z,21.50
2022-11-29T07:35:39.917Z,26.30
2022-11-29T07:38:12.673Z,46.27
2022-11-29T07:40:50.087Z,35.00
2022-11-29T07:43:34.193Z,29.83
2022-11-29T07:46:02.766Z,26.43
2022-11-29T07:48:31.058Z,25.53
2022-11-29T07:50:59.288Z,23.30
2022-11-29T07:53:27.648Z,22.70
2022-11-29T07:55:56.213Z,22.30
2022-11-29T07:58:25.902Z,22.13
2022-11-29T08:00:54.094Z,21.67
2022-11-29T08:03:22.350Z,22.17
2022-11-29T08:05:50.681Z,24.93
2022-11-29T08:08:19.085Z,25.20
2022-11-29T08:10:47.684Z,27.80
2022-11-29T08:13:15.977Z,26.27
2022-11-29T08:15:49.604Z,24.83
2022-11-29T08:18:18.641Z,26.37
2022-11-29T08:20:47.176Z,28.43
2022-11-29T08:23:15.819Z,25.30
2022-11-29T08:25:45.345Z,25.03
2022-11-29T08:28:13.683Z,24.67
2022-11-29T08:30:41.890Z,23.93
2022-11-29T08:33:11.460Z,28.70
2022-11-29T08:35:40.037Z,28.10
2022-11-29T08:38:08.425Z,27.43
2022-11-29T08:40:36.699Z,26.63
2022-11-29T08:43:04.963Z,25.17
2022-11-29T08:45:33.398Z,23.73
2022-11-29T08:48:01.694Z,25.73
2022-11-29T08:50:31.228Z,25.67
2022-11-29T08:53:17.103Z,26.13
2022-11-29T08:55:46.655Z,22.90
2022-11-29T08:58:16.815Z,22.67
2022-11-29T09:00:47.175Z,23.33
2022-11-29T09:03:33.177Z,24.27
2022-11-29T09:06:12.230Z,23.50
2022-11-29T09:08:43.460Z,25.57
2022-11-29T09:11:13.518Z,28.93
2022-11-29T09:13:42.564Z,25.70
2022-11-29T09:16:13.137Z,21.70
2022-11-29T09:18:44.872Z,20.03
2022-11-29T09:21:19.062Z,23.10
2022-11-29T09:23:47.900Z,22.97
2022-11-29T09:26:19.225Z,20.70
2022-11-29T09:28:47.827Z,21.40
2022-11-29T09:31:17.529Z,21.73
2022-11-29T09:33:46.605Z,22.80
2022-11-29T09:36:15.280Z,21.50
2022-11-29T09:38:45.068Z,19.80
2022-11-29T09:41:31.016Z,22.00
2022-11-29T09:44:07.373Z,21.17
2022-11-29T09:46:45.561Z,21.60
2022-11-29T09:49:37.603Z,22.03
2022-11-29T09:52:10.686Z,23.07
2022-11-29T09:54:52.049Z,21.47
2022-11-29T09:57:23.286Z,25.30
2022-11-29T09:59:55.390Z,25.50
2022-11-29T10:02:31.922Z,24.20
2022-11-29T10:05:04.165Z,23.53
2022-11-29T10:07:39.402Z,23.53
2022-11-29T10:10:18.447Z,23.90
2022-11-29T10:12:51.690Z,24.23
2022-11-29T10:15:23.910Z,21.83
2022-11-29T10:17:56.454Z,25.60
2022-11-29T10:20:27.246Z,24.87
2022-11-29T10:22:58.833Z,22.60
2022-11-29T10:25:32.638Z,24.73
2022-11-29T10:28:01.453Z,23.33
2022-11-29T10:30:30.455Z,23.70
2022-11-29T10:33:01.394Z,22.00
2022-11-29T10:35:30.574Z,23.57
2022-11-29T10:40:57.488Z,29.63
2022-11-29T10:43:26.409Z,27.00
2022-11-29T10:45:57.079Z,23.13
2022-11-29T10:48:31.718Z,25.47
2022-11-29T10:51:00.991Z,25.40
2022-11-29T10:53:35.860Z,22.60
2022-11-29T10:56:08.079Z,22.80
2022-11-29T10:58:36.835Z,23.43
2022-11-29T11:01:07.694Z,24.33
2022-11-29T11:03:40.923Z,23.77
2022-11-29T11:06:12.795Z,24.00
2022-11-29T11:08:44.237Z,23.90
2022-11-29T11:11:15.306Z,23.50
2022-11-29T11:13:43.896Z,25.50
2022-11-29T11:16:18.322Z,27.13
2022-11-29T11:18:48.681Z,26.03
2022-11-29T11:21:20.259Z,24.97
2022-11-29T11:23:55.399Z,25.23
2022-11-29T11:26:26.620Z,24.90
2022-11-29T11:29:00.157Z,25.87
2022-11-29T11:31:31.923Z,30.23
2022-11-29T11:34:29.194Z,28.60
2022-11-29T11:37:22.397Z,25.90
2022-11-29T11:39:52.479Z,24.93
2022-11-29T11:42:39.559Z,24.90
2022-11-29T11:45:32.724Z,20.93
2022-11-29T11:48:04.952Z,27.27
2022-11-29T11:50:35.607Z,34.90
2022-11-29T11:53:07.745Z,29.87
2022-11-29T11:55:39.695Z,29.27
2022-11-29T11:58:22.696Z,27.27
2022-11-29T12:01:08.639Z,28.20
2022-11-29T12:03:49.839Z,29.10
2022-11-29T12:06:36.671Z,28.10
2022-11-29T12:09:10.957Z,27.63
2022-11-29T12:11:44.729Z,26.20
2022-11-29T12:14:24.104Z,25.97
2022-11-29T12:17:00.777Z,26.63
2022-11-29T12:19:36.046Z,29.90
2022-11-29T12:22:10.239Z,43.30
2022-11-29T12:24:42.658Z,44.00
2022-11-29T12:27:14.874Z,34.33
2022-11-29T12:29:44.640Z,29.83
2022-11-29T12:32:40.226Z,31.90
2022-11-29T12:35:35.941Z,28.50
2022-11-29T12:38:12.886Z,31.37
2022-11-29T12:40:51.875Z,28.27
2022-11-29T12:43:28.623Z,28.90
2022-11-29T12:46:10.033Z,29.20
2022-11-29T12:48:46.286Z,27.67
2022-11-29T12:51:22.503Z,27.27
2022-11-29T12:54:23.754Z,25.73
2022-11-29T12:57:01.090Z,25.53
2022-11-29T12:59:41.960Z,27.10
2022-11-29T13:02:34.098Z,24.57
2022-11-29T13:05:10.728Z,26.60
2022-11-29T13:07:54.102Z,24.60
2022-11-29T13:10:43.271Z,24.63
2022-11-29T13:13:20.885Z,25.03
2022-11-29T13:15:55.879Z,26.47
2022-11-29T13:18:35.846Z,25.13
2022-11-29T13:21:13.269Z,25.60
2022-11-29T13:26:39.843Z,25.27
2022-11-29T13:29:13.661Z,26.23
2022-11-29T13:31:42.727Z,23.80
2022-11-29T13:34:16.845Z,23.97
2022-11-29T13:37:01.831Z,25.83
2022-11-29T13:39:42.663Z,27.37
2022-11-29T13:42:19.274Z,24.63
2022-11-29T13:44:58.039Z,23.73
2022-11-29T13:47:26.501Z,24.57
2022-11-29T13:49:58.777Z,25.17
2022-11-29T13:52:43.247Z,25.93
2022-11-29T13:55:29.170Z,24.53
2022-11-29T13:58:20.434Z,24.30
2022-11-29T14:00:52.135Z,24.23
2022-11-29T14:03:28.734Z,25.07
2022-11-29T14:06:11.514Z,25.50
2022-11-29T14:11:37.766Z,24.10
2022-11-29T14:14:09.922Z,23.87
2022-11-29T14:16:45.787Z,23.83
2022-11-29T14:19:23.885Z,22.07
2022-11-29T14:22:26.509Z,23.00
2022-11-29T14:25:11.896Z,22.50
2022-11-29T14:27:58.922Z,23.30
2022-11-29T14:30:45.722Z,22.73
2022-11-29T14:33:30.029Z,21.50
2022-11-29T14:36:05.735Z,20.57
2022-11-29T14:38:44.904Z,22.07
2022-11-29T14:41:26.859Z,22.60
2022-11-29T14:44:17.246Z,19.40
2022-11-29T14:46:46.890Z,22.43
2022-11-29T14:49:23.983Z,28.80
2022-11-29T14:52:21.581Z,27.67
2022-11-29T14:55:04.294Z,21.47
2022-11-29T14:58:15.079Z,19.73
2022-11-29T15:01:09.524Z,18.97
2022-11-29T15:03:47.350Z,18.10
2022-11-29T15:06:24.197Z,18.60
2022-11-29T15:08:58.556Z,18.70
2022-11-29T15:11:36.605Z,18.70
2022-11-29T15:14:07.507Z,17.67
2022-11-29T15:16:56.679Z,17.63
2022-11-29T15:19:52.821Z,17.23
2022-11-29T15:22:23.274Z,16.73
2022-11-29T15:24:53.988Z,16.00
2022-11-29T15:27:24.898Z,15.43
2022-11-29T15:29:53.407Z,16.20
2022-11-29T15:32:25.936Z,14.53
2022-11-29T15:34:56.327Z,13.50
2022-11-29T15:37:39.196Z,14.80
2022-11-29T15:40:11.913Z,13.77
2022-11-29T15:42:45.033Z,15.87
2022-11-29T15:45:28.904Z,14.47
2022-11-29T15:48:12.512Z,13.93
2022-11-29T15:50:47.587Z,13.23
2022-11-29T15:53:20.461Z,13.90
2022-11-29T15:55:50.827Z,14.13
2022-11-29T15:58:21.694Z,19.10
2022-11-29T16:00:51.193Z,22.00
2022-11-29T16:03:26.416Z,16.70
2022-11-29T16:06:02.673Z,17.13
2022-11-29T16:08:34.422Z,15.60
2022-11-29T16:11:04.139Z,14.07
2022-11-29T16:13:37.830Z,14.77
2022-11-29T16:16:14.262Z,13.77
2022-11-29T16:18:44.762Z,10.57
2022-11-29T16:21:25.526Z,13.30
2022-11-29T16:23:54.316Z,14.00
2022-11-29T16:26:27.636Z,14.60
2022-11-29T16:28:58.625Z,12.90
2022-11-29T16:31:34.016Z,13.53
2022-11-29T16:34:10.116Z,11.67
2022-11-29T16:36:38.629Z,12.40
2022-11-29T16:39:16.575Z,13.00
2022-11-29T16:41:45.323Z,11.40
2022-11-29T16:44:55.120Z,13.60
2022-11-29T16:47:24.810Z,13.23
2022-11-29T16:50:14.092Z,13.50
2022-11-29T16:52:42.475Z,13.20
2022-11-29T16:55:10.792Z,12.73
2022-11-29T16:57:40.667Z,11.50
2022-11-29T17:00:25.019Z,11.73
2022-11-29T17:02:53.356Z,12.90
2022-11-29T17:05:21.717Z,12.43
2022-11-29T17:07:50.320Z,12.70
2022-11-29T17:10:23.975Z,13.43
2022-11-29T17:12:52.855Z,12.37
2022-11-29T17:15:22.710Z,14.93
2022-11-29T17:17:51.283Z,12.00
2022-11-29T17:20:19.841Z,12.73
2022-11-29T17:22:48.533Z,12.27
2022-11-29T17:25:17.115Z,12.53
2022-11-29T17:27:45.782Z,12.37
2022-11-29T17:30:15.211Z,12.53
2022-11-29T17:32:44.993Z,11.80
2022-11-29T17:35:13.383Z,12.67
2022-11-29T17:37:41.586Z,14.17
2022-11-29T17:40:10.724Z,12.93
2022-11-29T17:42:39.225Z,13.40
2022-11-29T17:45:08.380Z,13.33
2022-11-29T17:47:36.731Z,14.80
2022-11-29T17:50:07.889Z,13.63
2022-11-29T17:52:37.040Z,14.60
2022-11-29T17:55:06.050Z,13.87
2022-11-29T17:57:34.749Z,14.17
2022-11-29T18:00:06.206Z,13.10
2022-11-29T18:02:34.814Z,14.00
2022-11-29T18:05:03.293Z,14.33
2022-11-29T18:07:33.095Z,13.27
2022-11-29T18:10:01.569Z,14.20
2022-11-29T18:12:29.973Z,15.30
2022-11-29T18:14:58.407Z,13.30
2022-11-29T18:17:26.681Z,15.70
2022-11-29T18:19:54.912Z,14.40
2022-11-29T18:22:23.426Z,14.00
2022-11-29T18:25:05.395Z,13.80
2022-11-29T18:27:41.480Z,14.87
2022-11-29T18:30:11.292Z,14.00
2022-11-29T18:32:39.675Z,15.43
2022-11-29T18:35:09.356Z,16.33
2022-11-29T18:38:06.737Z,14.80
2022-11-29T18:40:27.714Z,20.27
2022-11-29T18:42:56.072Z,41.90
2022-11-29T18:45:24.792Z,27.50
2022-11-29T18:47:53.152Z,21.90
2022-11-29T18:50:21.593Z,18.70
2022-11-29T18:52:51.503Z,17.80
2022-11-29T18:55:19.776Z,15.83
2022-11-29T18:57:51.196Z,17.13
2022-11-29T19:00:20.127Z,16.07
2022-11-29T19:02:48.594Z,17.03
2022-11-29T19:05:17.259Z,14.33
2022-11-29T19:07:45.668Z,15.23
2022-11-29T19:10:14.168Z,15.23
2022-11-29T19:12:42.420Z,15.37
2022-11-29T19:15:12.651Z,19.07
2022-11-29T19:17:43.395Z,16.17
2022-11-29T19:20:13.413Z,16.60
2022-11-29T19:22:42.064Z,15.70
2022-11-29T19:25:10.784Z,16.40
2022-11-29T19:27:40.191Z,18.07
2022-11-29T19:30:10.016Z,16.87
2022-11-29T19:32:39.754Z,17.13
2022-11-29T19:35:08.932Z,16.70
2022-11-29T19:37:37.269Z,15.73
2022-11-29T19:40:06.543Z,16.63
2022-11-29T19:42:34.904Z,16.03
2022-11-29T19:45:16.857Z,15.17
2022-11-29T19:47:47.297Z,13.73
2022-11-29T19:50:15.844Z,13.27
2022-11-29T19:52:44.207Z,14.47
2022-11-29T19:55:12.554Z,13.80
2022-11-29T19:57:40.910Z,15.37
2022-11-29T20:00:10.398Z,13.47
2022-11-29T20:02:43.084Z,14.40
2022-11-29T20:05:14.202Z,12.30
2022-11-29T20:07:42.405Z,14.53
2022-11-29T20:10:11.628Z,13.17
2022-11-29T20:12:40.097Z,14.80
2022-11-29T20:15:09.832Z,14.20
2022-11-29T20:17:38.229Z,15.57
2022-11-29T20:20:07.745Z,17.23
2022-11-29T20:22:37.790Z,15.53
2022-11-29T20:25:07.267Z,14.77
2022-11-29T20:27:35.975Z,16.67
2022-11-29T20:30:04.828Z,16.90
2022-11-29T20:32:33.379Z,16.27
2022-11-29T20:35:02.553Z,17.10
2022-11-29T20:37:49.362Z,18.40
2022-11-29T20:40:23.919Z,17.70
2022-11-29T20:43:04.444Z,17.30
2022-11-29T20:45:33.608Z,17.87
2022-11-29T20:48:11.291Z,16.73
2022-11-29T20:50:40.470Z,18.70
2022-11-29T20:53:23.250Z,18.73
2022-11-29T20:55:51.632Z,19.97
2022-11-29T20:58:20.267Z,23.10
2022-11-29T21:00:48.877Z,18.50
2022-11-29T21:03:18.939Z,21.90
2022-11-29T21:05:48.496Z,19.13
2022-11-29T21:08:21.014Z,20.17
2022-11-29T21:10:52.708Z,21.87
2022-11-29T21:13:23.225Z,21.00
2022-11-29T21:15:52.145Z,20.47
2022-11-29T21:18:25.646Z,20.77
2022-11-29T21:21:09.007Z,20.67
2022-11-29T21:23:49.310Z,20.23
2022-11-29T21:26:21.494Z,21.60
2022-11-29T21:28:58.753Z,22.37
2022-11-29T21:31:27.803Z,21.60
2022-11-29T21:33:56.640Z,22.60
2022-11-29T21:36:25.040Z,22.37
2022-11-29T21:38:55.476Z,24.80
2022-11-29T21:41:24.263Z,23.87
2022-11-29T21:44:06.567Z,25.13
2022-11-29T21:46:36.430Z,24.00
2022-11-29T21:49:05.473Z,23.63
2022-11-29T21:51:33.788Z,23.97
2022-11-29T21:54:04.220Z,27.33
2022-11-29T21:56:32.541Z,26.87
2022-11-29T21:59:00.807Z,26.33
2022-11-29T22:01:29.555Z,26.80
2022-11-29T22:03:58.057Z,26.83
2022-11-29T22:06:27.780Z,27.33
2022-11-29T22:08:56.199Z,29.03
2022-11-29T22:11:32.028Z,25.60
2022-11-29T22:14:18.414Z,26.93
2022-11-29T22:16:48.817Z,26.67
2022-11-29T22:19:18.848Z,30.17
2022-11-29T22:21:49.471Z,28.50
2022-11-29T22:24:19.251Z,28.37
2022-11-29T22:26:50.183Z,29.63
2022-11-29T22:29:18.846Z,28.47
2022-11-29T22:31:48.381Z,26.53
2022-11-29T22:34:16.830Z,25.77
2022-11-29T22:36:45.209Z,27.40
2022-11-29T22:39:13.746Z,28.07
2022-11-29T22:41:42.649Z,29.23
2022-11-29T22:44:12.359Z,28.47
2022-11-29T22:46:41.552Z,28.00
2022-11-29T22:49:10.644Z,28.10
2022-11-29T22:51:39.777Z,27.67
2022-11-29T22:54:09.678Z,27.80
2022-11-29T22:56:40.742Z,28.60
2022-11-29T22:59:09.681Z,25.97
2022-11-29T23:01:41.056Z,28.40
2022-11-29T23:04:11.609Z,26.70
2022-11-29T23:06:42.805Z,29.50
2022-11-29T23:09:15.804Z,28.00
2022-11-29T23:11:45.597Z,28.87
2022-11-29T23:14:14.425Z,28.00
2022-11-29T23:16:44.320Z,28.23
2022-11-29T23:19:12.862Z,26.20
2022-11-29T23:21:44.720Z,30.07
2022-11-29T23:24:13.723Z,27.10
2022-11-29T23:26:45.104Z,28.50
2022-11-29T23:29:16.233Z,29.03
2022-11-29T23:31:46.652Z,30.50
2022-11-29T23:34:15.274Z,32.00
2022-11-29T23:36:47.051Z,32.60
2022-11-29T23:39:19.599Z,31.40
2022-11-29T23:41:47.896Z,29.53
2022-11-29T23:44:16.150Z,32.00
2022-11-29T23:46:45.669Z,30.10
2022-11-29T23:49:14.010Z,31.50
2022-11-29T23:51:42.751Z,33.40
2022-11-29T23:54:11.033Z,30.63
2022-11-29T23:56:39.354Z,30.27
2022-11-29T23:59:07.799Z,30.17
